Time;durP1;ratioP1;P1;durP2;ratioP2;P2;SDS_P1;SDS_P2;PMS_P1;PMS_P2;Temp;Humidity;BMP_temperature;BMP_pressure;BME280_temperature;BME280_humidity;BME280_pressure;Samples;Min_cycle;Max_cycle;Signal;HPM_P1;HPM_P2
2023/04/20 00:02:21;;;;;;;6.80;3.03;;;;;;;;;;4837787;29;20041;-77
2023/04/20 00:04:47;;;;;;;8.40;2.67;;;;;;;;;;4818828;29;20033;-77
2023/04/20 00:07:15;;;;;;;8.68;2.92;;;;;;;;;;4823007;29;20030;-79
2023/04/20 00:09:41;;;;;;;4.85;2.63;;;;;;;;;;4801508;29;20065;-79
2023/04/20 00:12:07;;;;;;;6.68;2.80;;;;;;;;;;4835811;29;20045;-79
2023/04/20 00:14:34;;;;;;;8.07;2.80;;;;;;;;;;4814964;29;20163;-77
2023/04/20 00:17:03;;;;;;;7.28;2.53;;;;;;;;;;4820417;29;20034;-77
2023/04/20 00:19:32;;;;;;;9.40;2.85;;;;;;;;;;4820853;29;20067;-76
2023/04/20 00:21:58;;;;;;;6.57;2.55;;;;;;;;;;4836284;29;20395;-78
2023/04/20 00:24:24;;;;;;;9.43;2.90;;;;;;;;;;4835963;29;20033;-76
2023/04/20 00:26:54;;;;;;;5.78;2.50;;;;;;;;;;4838529;29;20401;-76
2023/04/20 00:29:20;;;;;;;5.97;2.25;;;;;;;;;;4821433;29;20070;-76
2023/04/20 00:31:46;;;;;;;7.63;2.30;;;;;;;;;;4847127;29;20033;-77
2023/04/20 00:34:12;;;;;;;5.50;2.65;;;;;;;;;;4821974;29;20090;-76
2023/04/20 00:36:38;;;;;;;10.23;2.47;;;;;;;;;;4831774;29;20116;-76
2023/04/20 00:39:04;;;;;;;7.93;2.50;;;;;;;;;;4833796;29;20345;-76
2023/04/20 00:41:31;;;;;;;4.07;2.25;;;;;;;;;;4837679;29;20022;-77
2023/04/20 00:43:57;;;;;;;5.38;1.85;;;;;;;;;;4836958;29;20072;-77
2023/04/20 00:46:23;;;;;;;4.53;1.98;;;;;;;;;;4838093;29;20038;-77
2023/04/20 00:48:53;;;;;;;8.55;2.65;;;;;;;;;;4826076;29;20067;-76
2023/04/20 00:51:20;;;;;;;5.13;2.22;;;;;;;;;;4832210;29;20030;-77
2023/04/20 00:53:47;;;;;;;4.43;2.22;;;;;;;;;;4829894;29;20034;-76
2023/04/20 00:56:13;;;;;;;6.20;2.00;;;;;;;;;;4835527;29;20063;-76
2023/04/20 00:58:41;;;;;;;7.18;2.40;;;;;;;;;;4833238;29;20043;-76
2023/04/20 01:01:07;;;;;;;5.32;1.90;;;;;;;;;;4839206;29;20109;-75
2023/04/20 01:03:34;;;;;;;5.82;1.63;;;;;;;;;;4834649;29;20039;-76
2023/04/20 01:06:00;;;;;;;6.80;2.00;;;;;;;;;;4836412;29;20041;-76
2023/04/20 01:08:27;;;;;;;5.75;2.08;;;;;;;;;;4834040;29;20086;-76
2023/04/20 01:10:56;;;;;;;13.73;2.13;;;;;;;;;;4827888;29;21367;-76
2023/04/20 01:13:22;;;;;;;8.00;2.08;;;;;;;;;;4840793;29;20472;-75
2023/04/20 01:15:49;;;;;;;3.53;1.70;;;;;;;;;;4835444;29;20034;-76
2023/04/20 01:18:17;;;;;;;5.63;2.30;;;;;;;;;;4838033;29;20022;-75
2023/04/20 01:20:45;;;;;;;6.85;1.75;;;;;;;;;;4829629;29;20476;-75
2023/04/20 01:23:12;;;;;;;6.85;1.48;;;;;;;;;;4836844;29;20480;-76
2023/04/20 01:25:38;;;;;;;3.88;1.70;;;;;;;;;;4831138;29;20034;-75
2023/04/20 01:28:04;;;;;;;5.53;2.28;;;;;;;;;;4839390;29;20365;-76
2023/04/20 01:30:30;;;;;;;2.83;1.80;;;;;;;;;;4839330;29;20022;-76
2023/04/20 01:32:57;;;;;;;8.98;2.05;;;;;;;;;;4840354;29;20041;-75
2023/04/20 01:35:23;;;;;;;7.05;2.08;;;;;;;;;;4813394;29;20044;-76
2023/04/20 01:37:49;;;;;;;3.88;1.80;;;;;;;;;;4839697;29;20117;-75
2023/04/20 01:40:15;;;;;;;6.10;2.08;;;;;;;;;;4837067;29;20042;-76
2023/04/20 01:42:42;;;;;;;7.45;1.40;;;;;;;;;;4843004;29;20026;-75
2023/04/20 01:45:08;;;;;;;7.03;1.77;;;;;;;;;;4831699;29;20030;-76
2023/04/20 01:47:34;;;;;;;6.88;1.70;;;;;;;;;;4836907;29;20040;-75
2023/04/20 01:50:00;;;;;;;6.95;1.70;;;;;;;;;;4816435;29;20037;-76
2023/04/20 01:52:26;;;;;;;6.22;2.08;;;;;;;;;;4810680;29;20042;-76
2023/04/20 01:54:53;;;;;;;7.50;1.92;;;;;;;;;;4824823;29;20033;-76
2023/04/20 01:57:19;;;;;;;5.05;2.03;;;;;;;;;;4838925;29;20061;-76
2023/04/20 01:59:45;;;;;;;7.07;1.95;;;;;;;;;;4836801;29;20405;-75
2023/04/20 02:02:11;;;;;;;6.28;1.90;;;;;;;;;;4837543;29;20026;-76
2023/04/20 02:04:37;;;;;;;5.57;1.63;;;;;;;;;;4834993;29;20467;-75
2023/04/20 02:07:03;;;;;;;5.40;1.73;;;;;;;;;;4834449;29;20037;-77
2023/04/20 02:09:30;;;;;;;10.98;2.22;;;;;;;;;;4838927;29;20041;-77
2023/04/20 02:11:56;;;;;;;4.90;1.48;;;;;;;;;;4835373;29;20480;-76
2023/04/20 02:14:23;;;;;;;7.75;2.17;;;;;;;;;;4834238;29;20471;-77
2023/04/20 02:16:51;;;;;;;8.88;1.20;;;;;;;;;;4841899;29;20062;-76
2023/04/20 02:19:18;;;;;;;6.32;2.05;;;;;;;;;;4837800;29;20045;-76
2023/04/20 02:21:44;;;;;;;6.72;1.73;;;;;;;;;;4823253;29;20043;-77
2023/04/20 02:24:10;;;;;;;5.03;2.10;;;;;;;;;;4838384;29;20034;-76
2023/04/20 02:26:36;;;;;;;5.28;2.75;;;;;;;;;;4839677;29;20522;-76
2023/04/20 02:29:02;;;;;;;8.27;1.88;;;;;;;;;;4836152;29;20035;-75
2023/04/20 02:31:28;;;;;;;5.43;1.75;;;;;;;;;;4808357;29;20449;-76
2023/04/20 02:33:54;;;;;;;8.18;1.88;;;;;;;;;;4807628;29;20480;-76
2023/04/20 02:36:20;;;;;;;7.22;1.60;;;;;;;;;;4852091;29;20033;-75
2023/04/20 02:38:46;;;;;;;6.68;1.90;;;;;;;;;;4836463;29;20046;-76
2023/04/20 02:41:13;;;;;;;6.70;2.03;;;;;;;;;;4841236;29;20029;-76
2023/04/20 02:43:46;;;;;;;5.13;1.60;;;;;;;;;;4837358;29;20648;-78
2023/04/20 02:46:12;;;;;;;7.40;1.70;;;;;;;;;;4816368;29;20045;-77
2023/04/20 02:48:39;;;;;;;9.43;2.20;;;;;;;;;;4800570;29;20115;-76
2023/04/20 02:51:05;;;;;;;5.43;1.70;;;;;;;;;;4803961;29;20070;-76
2023/04/20 02:53:31;;;;;;;3.75;1.55;;;;;;;;;;4818612;29;20026;-76
2023/04/20 02:55:57;;;;;;;6.65;1.63;;;;;;;;;;4792517;29;20042;-76
2023/04/20 02:58:24;;;;;;;8.98;2.05;;;;;;;;;;4794762;29;20058;-76
2023/04/20 03:00:52;;;;;;;9.55;2.10;;;;;;;;;;4783621;29;20035;-76
2023/04/20 03:03:19;;;;;;;8.27;1.65;;;;;;;;;;4817954;29;20495;-76
2023/04/20 03:05:46;;;;;;;6.32;2.15;;;;;;;;;;4785504;29;20035;-77
2023/04/20 03:08:12;;;;;;;7.68;2.38;;;;;;;;;;4805552;29;20030;-77
2023/04/20 03:10:38;;;;;;;9.00;1.77;;;;;;;;;;4812995;29;20386;-76
2023/04/20 03:13:04;;;;;;;8.85;1.95;;;;;;;;;;4789275;29;20034;-76
2023/04/20 03:15:30;;;;;;;6.30;1.83;;;;;;;;;;4795581;29;20146;-75
2023/04/20 03:17:56;;;;;;;7.70;2.03;;;;;;;;;;4801758;29;20095;-75
2023/04/20 03:20:23;;;;;;;3.92;1.73;;;;;;;;;;4820036;29;20042;-75
2023/04/20 03:22:49;;;;;;;7.65;2.10;;;;;;;;;;4788487;29;20542;-75
2023/04/20 03:25:15;;;;;;;6.75;2.10;;;;;;;;;;4796217;29;20031;-76
2023/04/20 03:27:41;;;;;;;13.80;2.25;;;;;;;;;;4797788;29;20091;-75
2023/04/20 03:30:08;;;;;;;5.47;2.08;;;;;;;;;;4798171;29;20400;-76
2023/04/20 03:32:34;;;;;;;7.65;2.08;;;;;;;;;;4807977;29;20022;-75
2023/04/20 03:35:00;;;;;;;9.27;1.70;;;;;;;;;;4797864;29;20476;-75
2023/04/20 03:37:26;;;;;;;6.43;2.08;;;;;;;;;;4791963;29;20053;-75
2023/04/20 03:39:53;;;;;;;7.57;2.08;;;;;;;;;;4800127;29;20063;-75
2023/04/20 03:42:19;;;;;;;7.18;1.88;;;;;;;;;;4793062;29;20030;-76
2023/04/20 03:44:45;;;;;;;10.02;2.08;;;;;;;;;;4806516;29;20105;-76
2023/04/20 03:47:11;;;;;;;10.00;2.28;;;;;;;;;;4804379;29;20034;-76
2023/04/20 03:49:38;;;;;;;8.52;2.17;;;;;;;;;;4829457;29;20158;-76
2023/04/20 03:52:04;;;;;;;7.65;2.38;;;;;;;;;;4836600;29;20030;-76
2023/04/20 03:54:30;;;;;;;10.50;2.45;;;;;;;;;;4836058;29;20045;-76
2023/04/20 03:56:57;;;;;;;7.93;2.10;;;;;;;;;;4834879;29;20038;-76
2023/04/20 03:59:23;;;;;;;7.18;2.63;;;;;;;;;;4845179;29;20065;-76
2023/04/20 04:01:50;;;;;;;6.32;1.83;;;;;;;;;;4832047;29;20037;-76
2023/04/20 04:04:16;;;;;;;14.60;2.40;;;;;;;;;;4837997;29;20038;-77
2023/04/20 04:06:42;;;;;;;9.13;2.15;;;;;;;;;;4837506;29;20061;-77
2023/04/20 04:09:08;;;;;;;7.10;2.10;;;;;;;;;;4838401;29;20064;-78
2023/04/20 04:11:35;;;;;;;5.15;2.33;;;;;;;;;;4823324;29;20533;-77
2023/04/20 04:14:07;;;;;;;11.73;2.00;;;;;;;;;;4837839;29;20086;-77
2023/04/20 04:16:33;;;;;;;7.40;3.22;;;;;;;;;;4814941;29;20106;-76
2023/04/20 04:18:59;;;;;;;4.35;1.60;;;;;;;;;;4847617;29;20683;-76
2023/04/20 04:21:27;;;;;;;8.93;1.80;;;;;;;;;;4836766;29;20040;-76
2023/04/20 04:23:53;;;;;;;5.97;2.08;;;;;;;;;;4811189;29;20068;-75
2023/04/20 04:26:23;;;;;;;6.40;2.10;;;;;;;;;;4820714;29;20043;-76
2023/04/20 04:28:54;;;;;;;7.50;1.77;;;;;;;;;;4823209;29;20058;-76
2023/04/20 04:31:20;;;;;;;6.55;1.70;;;;;;;;;;4832336;29;20035;-75
2023/04/20 04:33:46;;;;;;;4.60;1.40;;;;;;;;;;4837902;29;20170;-77
2023/04/20 04:36:16;;;;;;;7.57;1.45;;;;;;;;;;4833098;29;20454;-76
2023/04/20 04:38:45;;;;;;;8.82;1.92;;;;;;;;;;4836178;29;20077;-77
2023/04/20 04:41:12;;;;;;;5.57;1.88;;;;;;;;;;4835727;29;20034;-78
2023/04/20 04:43:42;;;;;;;5.55;2.38;;;;;;;;;;4838825;29;20036;-77
2023/04/20 04:46:09;;;;;;;4.95;1.83;;;;;;;;;;4836730;29;20030;-75
2023/04/20 04:48:35;;;;;;;4.32;1.45;;;;;;;;;;4828714;29;20118;-78
2023/04/20 04:51:02;;;;;;;8.13;1.80;;;;;;;;;;4802954;29;20034;-75
2023/04/20 04:53:28;;;;;;;4.05;1.30;;;;;;;;;;4803799;29;20034;-75
2023/04/20 04:55:54;;;;;;;6.95;1.63;;;;;;;;;;4802798;29;20038;-78
2023/04/20 04:58:20;;;;;;;11.05;2.20;;;;;;;;;;4792318;29;20043;-76
2023/04/20 05:00:47;;;;;;;6.88;1.50;;;;;;;;;;4818851;29;20038;-78
2023/04/20 05:03:13;;;;;;;4.50;1.40;;;;;;;;;;4808600;29;20023;-78
2023/04/20 05:05:39;;;;;;;13.45;1.90;;;;;;;;;;4806396;29;20026;-75
2023/04/20 05:08:05;;;;;;;8.45;2.22;;;;;;;;;;4808366;29;20499;-76
2023/04/20 05:10:31;;;;;;;11.30;1.60;;;;;;;;;;4789849;29;20073;-77
2023/04/20 05:12:59;;;;;;;7.13;1.67;;;;;;;;;;4808748;29;20357;-76
2023/04/20 05:15:25;;;;;;;7.72;1.38;;;;;;;;;;4804528;29;20030;-76
2023/04/20 05:17:51;;;;;;;4.30;1.88;;;;;;;;;;4800602;29;20125;-73
2023/04/20 05:20:18;;;;;;;9.10;1.63;;;;;;;;;;4819954;29;20115;-79
2023/04/20 05:22:44;;;;;;;3.92;1.55;;;;;;;;;;4812018;29;20034;-78
2023/04/20 05:25:13;;;;;;;9.80;1.80;;;;;;;;;;4809663;29;20042;-79
2023/04/20 05:27:39;;;;;;;8.30;2.30;;;;;;;;;;4791484;29;20138;-78
2023/04/20 05:30:06;;;;;;;2.33;1.48;;;;;;;;;;4797539;29;20091;-77
2023/04/20 05:32:32;;;;;;;3.42;1.48;;;;;;;;;;4800459;29;20041;-77
2023/04/20 05:34:59;;;;;;;5.53;1.23;;;;;;;;;;4800249;29;20035;-77
2023/04/20 05:37:26;;;;;;;5.03;1.73;;;;;;;;;;4806309;29;20026;-76
2023/04/20 05:40:10;;;;;;;7.15;1.55;;;;;;;;;;4804519;29;20573;-77
2023/04/20 05:42:36;;;;;;;5.68;1.58;;;;;;;;;;4787271;29;20408;-77
2023/04/20 05:45:05;;;;;;;5.55;1.58;;;;;;;;;;4821611;29;20507;-77
2023/04/20 05:51:01;;;;;;;3.45;1.50;;;;;;;;;;4805767;29;20086;-77
2023/04/20 05:56:42;;;;;;;5.68;2.00;;;;;;;;;;4821292;29;20123;-78
2023/04/20 05:59:10;;;;;;;8.02;1.85;;;;;;;;;;4814470;29;20601;-79
2023/04/20 06:01:36;;;;;;;5.13;2.22;;;;;;;;;;4795303;29;20113;-80
2023/04/20 06:04:05;;;;;;;7.60;2.85;;;;;;;;;;4816173;29;20469;-82
2023/04/20 06:06:31;;;;;;;6.25;1.90;;;;;;;;;;4824084;29;20030;-81
2023/04/20 06:08:58;;;;;;;9.70;2.22;;;;;;;;;;4796834;29;20031;-80
2023/04/20 06:11:24;;;;;;;9.30;1.88;;;;;;;;;;4797998;29;20042;-77
2023/04/20 06:13:50;;;;;;;7.55;2.03;;;;;;;;;;4807369;29;20035;-76
2023/04/20 06:16:16;;;;;;;4.38;1.85;;;;;;;;;;4809311;29;20027;-76
2023/04/20 06:18:45;;;;;;;7.57;1.75;;;;;;;;;;4805372;29;20389;-76
2023/04/20 06:24:22;;;;;;;3.13;2.05;;;;;;;;;;4782193;29;20519;-76
2023/04/20 06:30:08;;;;;;;10.68;2.42;;;;;;;;;;4761610;30;20078;-78
2023/04/20 06:33:16;;;;;;;8.40;2.90;;;;;;;;;;4818306;29;20117;-76
2023/04/20 06:38:48;;;;;;;;;;;;;;;;;;4770411;30;20043;-79
2023/04/20 06:53:30;;;;;;;11.32;1.98;;;;;;;;;;4762241;29;20062;-77
2023/04/20 06:55:57;;;;;;;4.35;1.73;;;;;;;;;;4795969;29;20046;-79
2023/04/20 06:58:26;;;;;;;4.00;1.80;;;;;;;;;;4796844;29;20034;-78
2023/04/20 07:04:15;;;;;;;9.85;2.17;;;;;;;;;;4815106;29;20068;-79
2023/04/20 07:06:44;;;;;;;4.57;1.90;;;;;;;;;;4791797;29;20072;-80
2023/04/20 07:09:10;;;;;;;7.47;2.10;;;;;;;;;;4821944;29;20038;-80
2023/04/20 07:11:36;;;;;;;5.32;2.10;;;;;;;;;;4835407;29;20052;-81
2023/04/20 07:14:02;;;;;;;5.22;2.47;;;;;;;;;;4833077;29;20034;-82
2023/04/20 07:16:28;;;;;;;11.60;3.25;;;;;;;;;;4831302;29;20039;-78
2023/04/20 07:19:03;;;;;;;6.38;2.20;;;;;;;;;;4833906;29;20038;-76
2023/04/20 07:21:30;;;;;;;24.15;13.80;;;;;;;;;;4834824;29;20026;-80
2023/04/20 07:23:57;;;;;;;8.27;2.00;;;;;;;;;;4818299;29;20194;-79
2023/04/20 07:26:24;;;;;;;5.18;2.20;;;;;;;;;;4830956;29;20030;-79
2023/04/20 07:28:50;;;;;;;10.32;4.25;;;;;;;;;;4823424;29;20041;-79
2023/04/20 07:31:16;;;;;;;5.35;2.30;;;;;;;;;;4818331;29;20091;-80
2023/04/20 07:36:46;;;;;;;5.40;2.63;;;;;;;;;;4835226;29;20387;-81
2023/04/20 07:39:14;;;;;;;9.23;2.78;;;;;;;;;;4849447;29;20048;-81
2023/04/20 07:41:40;;;;;;;7.00;2.53;;;;;;;;;;4831457;29;20033;-80
2023/04/20 07:44:06;;;;;;;18.75;11.48;;;;;;;;;;4813079;29;20610;-80
2023/04/20 07:46:35;;;;;;;9.70;2.30;;;;;;;;;;4835551;29;20042;-80
2023/04/20 07:49:01;;;;;;;5.88;2.10;;;;;;;;;;4833059;29;20037;-80
2023/04/20 07:51:29;;;;;;;6.55;2.90;;;;;;;;;;4846837;29;20037;-80
2023/04/20 07:53:56;;;;;;;7.35;3.22;;;;;;;;;;4835286;29;20476;-81
2023/04/20 07:56:22;;;;;;;5.85;3.03;;;;;;;;;;4828631;29;20472;-79
2023/04/20 07:58:48;;;;;;;7.00;3.05;;;;;;;;;;4844366;29;20088;-82
2023/04/20 08:01:16;;;;;;;4.10;2.40;;;;;;;;;;4820487;29;20023;-84
2023/04/20 08:04:09;;;;;;;5.22;2.10;;;;;;;;;;4833976;29;20034;-81
2023/04/20 08:09:40;;;;;;;8.32;2.67;;;;;;;;;;4825146;29;20185;-87
2023/04/20 08:15:10;;;;;;;5.60;2.90;;;;;;;;;;4832640;29;20028;-89
2023/04/20 08:17:36;;;;;;;7.57;3.00;;;;;;;;;;4835648;29;20025;-84
2023/04/20 08:20:04;;;;;;;6.00;2.60;;;;;;;;;;4835991;29;20073;-84
2023/04/20 08:22:32;;;;;;;5.35;2.40;;;;;;;;;;4829187;29;20398;-83
2023/04/20 08:24:58;;;;;;;7.28;3.33;;;;;;;;;;4834134;29;20146;-82
2023/04/20 08:27:24;;;;;;;7.93;2.85;;;;;;;;;;4830326;29;20108;-81
2023/04/20 08:29:51;;;;;;;9.75;3.42;;;;;;;;;;4836777;29;20033;-84
2023/04/20 08:32:21;;;;;;;6.07;2.55;;;;;;;;;;4821811;29;20030;-83
2023/04/20 08:34:47;;;;;;;5.07;2.67;;;;;;;;;;4844395;29;20033;-83
2023/04/20 08:37:13;;;;;;;9.50;2.83;;;;;;;;;;4815657;29;20030;-85
2023/04/20 08:39:39;;;;;;;7.10;2.85;;;;;;;;;;4830744;29;20038;-83
2023/04/20 08:42:05;;;;;;;6.22;2.40;;;;;;;;;;4851242;29;20022;-82
2023/04/20 08:44:43;;;;;;;5.45;2.47;;;;;;;;;;4835855;29;20066;-78
2023/04/20 08:47:26;;;;;;;6.90;2.80;;;;;;;;;;4814429;29;20399;-80
2023/04/20 08:50:01;;;;;;;7.13;2.42;;;;;;;;;;4834236;29;20042;-78
2023/04/20 08:52:27;;;;;;;5.20;2.53;;;;;;;;;;4830405;29;20038;-82
2023/04/20 08:55:09;;;;;;;8.68;2.90;;;;;;;;;;4831030;29;20045;-80
2023/04/20 08:57:50;;;;;;;7.03;2.70;;;;;;;;;;4851258;29;20041;-81
2023/04/20 09:00:22;;;;;;;9.15;2.50;;;;;;;;;;4837136;29;20124;-80
2023/04/20 09:02:53;;;;;;;5.90;2.70;;;;;;;;;;4842689;29;20117;-80
2023/04/20 09:05:27;;;;;;;5.00;2.30;;;;;;;;;;4840205;29;20041;-82
2023/04/20 09:08:22;;;;;;;5.03;2.75;;;;;;;;;;4847708;29;20463;-79
2023/04/20 09:10:51;;;;;;;7.70;2.60;;;;;;;;;;4835750;29;20038;-78
2023/04/20 09:13:26;;;;;;;7.57;2.38;;;;;;;;;;4817095;29;20126;-80
2023/04/20 09:15:52;;;;;;;6.28;2.63;;;;;;;;;;4832271;29;20360;-80
2023/04/20 09:18:18;;;;;;;4.72;2.72;;;;;;;;;;4838748;29;20034;-81
2023/04/20 09:20:45;;;;;;;3.78;2.25;;;;;;;;;;4830019;29;20066;-80
2023/04/20 09:23:16;;;;;;;3.95;2.90;;;;;;;;;;4833581;29;20025;-83
2023/04/20 09:25:45;;;;;;;4.80;2.30;;;;;;;;;;4817360;29;20046;-81
2023/04/20 09:28:25;;;;;;;5.90;2.88;;;;;;;;;;4836299;29;20034;-80
2023/04/20 09:31:01;;;;;;;6.38;2.88;;;;;;;;;;4833180;29;20026;-78
2023/04/20 09:33:36;;;;;;;4.63;2.65;;;;;;;;;;4842928;29;20045;-80
2023/04/20 09:36:04;;;;;;;10.75;3.83;;;;;;;;;;4837917;29;20034;-81
2023/04/20 09:38:30;;;;;;;6.15;3.00;;;;;;;;;;4836579;29;20384;-80
2023/04/20 09:41:01;;;;;;;3.72;2.40;;;;;;;;;;4814058;29;20445;-83
2023/04/20 09:43:27;;;;;;;7.88;2.72;;;;;;;;;;4838484;29;20062;-82
2023/04/20 09:48:59;;;;;;;5.43;2.97;;;;;;;;;;4848124;29;20098;-84
2023/04/20 09:51:28;;;;;;;4.22;2.42;;;;;;;;;;4841282;29;20377;-85
2023/04/20 09:53:55;;;;;;;5.70;3.10;;;;;;;;;;4841719;29;20026;-81
2023/04/20 09:56:22;;;;;;;4.70;2.90;;;;;;;;;;4833061;29;20488;-81
2023/04/20 10:33:10;;;;;;;7.65;3.03;;;;;;;;;;5779540;24;20024;-82
2023/04/20 10:35:57;;;;;;;4.97;3.10;;;;;;;;;;4834724;29;20053;-81
2023/04/20 10:38:30;;;;;;;5.32;3.13;;;;;;;;;;4836762;29;20125;-81
2023/04/20 10:40:56;;;;;;;9.32;3.60;;;;;;;;;;4840780;29;20580;-78
2023/04/20 10:43:22;;;;;;;4.70;2.80;;;;;;;;;;4839668;29;20123;-77
2023/04/20 10:45:49;;;;;;;5.82;3.00;;;;;;;;;;4835179;29;20162;-78
2023/04/20 10:48:16;;;;;;;4.60;2.88;;;;;;;;;;4809766;29;20129;-76
2023/04/20 10:50:45;;;;;;;3.55;3.03;;;;;;;;;;4838899;29;20045;-77
2023/04/20 10:53:19;;;;;;;5.45;3.13;;;;;;;;;;4832441;29;20560;-79
2023/04/20 10:55:45;;;;;;;7.05;2.90;;;;;;;;;;4836742;29;20042;-78
2023/04/20 10:58:23;;;;;;;5.97;3.00;;;;;;;;;;4838020;29;20069;-78
2023/04/20 11:01:03;;;;;;;3.75;2.72;;;;;;;;;;4840619;29;20050;-75
2023/04/20 11:03:30;;;;;;;6.32;3.42;;;;;;;;;;4883235;23;20410;-80
2023/04/20 11:05:59;;;;;;;19.70;9.52;;;;;;;;;;4858343;29;20128;-83
2023/04/20 11:08:35;;;;;;;4.60;3.20;;;;;;;;;;4840945;29;20030;-77
2023/04/20 11:11:01;;;;;;;3.78;3.10;;;;;;;;;;4856883;29;20108;-76
2023/04/20 11:13:29;;;;;;;5.65;3.33;;;;;;;;;;4841702;29;20067;-79
2023/04/20 11:15:55;;;;;;;8.20;4.25;;;;;;;;;;4852428;29;20048;-78
2023/04/20 11:18:21;;;;;;;6.38;3.22;;;;;;;;;;4847007;29;20029;-77
2023/04/20 11:20:51;;;;;;;7.28;3.17;;;;;;;;;;4847424;29;20053;-79
2023/04/20 11:23:18;;;;;;;6.32;2.75;;;;;;;;;;4850577;29;20034;-78
2023/04/20 11:25:50;;;;;;;5.22;2.30;;;;;;;;;;4853907;29;20072;-77
2023/04/20 11:28:16;;;;;;;7.03;3.13;;;;;;;;;;4848132;29;20086;-75
2023/04/20 11:30:43;;;;;;;6.63;3.20;;;;;;;;;;4838980;29;20046;-77
2023/04/20 11:33:12;;;;;;;4.35;2.80;;;;;;;;;;4858562;29;20476;-76
2023/04/20 11:35:39;;;;;;;7.50;3.28;;;;;;;;;;4853530;29;20033;-76
2023/04/20 11:38:05;;;;;;;6.75;3.08;;;;;;;;;;4852219;29;20459;-78
2023/04/20 11:40:31;;;;;;;6.97;3.47;;;;;;;;;;4870310;29;20029;-81
2023/04/20 11:42:58;;;;;;;4.40;3.03;;;;;;;;;;4854778;29;20045;-80
2023/04/20 11:45:25;;;;;;;6.00;2.95;;;;;;;;;;4852368;29;20033;-81
2023/04/20 11:47:51;;;;;;;6.80;3.78;;;;;;;;;;4849422;29;20522;-81
2023/04/20 11:50:18;;;;;;;5.10;3.55;;;;;;;;;;4851407;29;20045;-81
2023/04/20 11:52:44;;;;;;;5.63;3.53;;;;;;;;;;4854168;29;20026;-75
2023/04/20 11:55:10;;;;;;;4.68;3.28;;;;;;;;;;4855829;29;20085;-78
2023/04/20 11:57:36;;;;;;;5.45;3.33;;;;;;;;;;4835402;29;20037;-78
2023/04/20 12:00:03;;;;;;;5.30;3.80;;;;;;;;;;4858486;29;20041;-80
2023/04/20 12:02:29;;;;;;;7.13;3.72;;;;;;;;;;4838440;29;20132;-80
2023/04/20 12:04:55;;;;;;;8.48;4.28;;;;;;;;;;4839539;29;20041;-74
2023/04/20 12:07:22;;;;;;;5.03;3.90;;;;;;;;;;4857641;29;20029;-81
2023/04/20 12:09:48;;;;;;;7.45;4.15;;;;;;;;;;4854059;29;20490;-80
2023/04/20 12:12:17;;;;;;;15.10;8.30;;;;;;;;;;4855085;29;20037;-78
2023/04/20 12:14:44;;;;;;;11.80;5.97;;;;;;;;;;4856947;29;20109;-78
2023/04/20 12:17:10;;;;;;;9.63;4.30;;;;;;;;;;4863286;29;20025;-81
2023/04/20 12:19:36;;;;;;;8.55;4.72;;;;;;;;;;4865361;29;20126;-79
2023/04/20 12:22:03;;;;;;;5.80;4.32;;;;;;;;;;4851823;29;20034;-78
2023/04/20 12:24:29;;;;;;;5.82;4.20;;;;;;;;;;4854725;29;20037;-78
2023/04/20 12:26:56;;;;;;;5.13;3.85;;;;;;;;;;4852736;29;20068;-77
2023/04/20 12:29:22;;;;;;;6.45;4.10;;;;;;;;;;4843115;29;20046;-75
2023/04/20 12:31:48;;;;;;;9.73;4.32;;;;;;;;;;4839652;29;20033;-78
2023/04/20 12:34:14;;;;;;;7.22;4.20;;;;;;;;;;4845966;29;20394;-76
2023/04/20 12:36:41;;;;;;;7.47;4.43;;;;;;;;;;4855356;29;20097;-79
2023/04/20 12:39:07;;;;;;;10.13;4.40;;;;;;;;;;4844235;29;20042;-80
2023/04/20 12:41:34;;;;;;;8.63;4.60;;;;;;;;;;4854152;29;20097;-81
2023/04/20 12:44:01;;;;;;;6.90;4.47;;;;;;;;;;4857520;29;20121;-79
2023/04/20 12:46:27;;;;;;;6.68;4.50;;;;;;;;;;4854676;29;20030;-78
2023/04/20 12:48:54;;;;;;;7.55;4.88;;;;;;;;;;4839282;29;20136;-82
2023/04/20 12:51:22;;;;;;;8.23;4.47;;;;;;;;;;4839775;29;20029;-79
2023/04/20 12:53:48;;;;;;;8.05;4.25;;;;;;;;;;4849899;29;20398;-76
2023/04/20 12:56:14;;;;;;;16.63;8.05;;;;;;;;;;4851300;29;20041;-79
2023/04/20 12:58:40;;;;;;;13.40;9.18;;;;;;;;;;4851922;29;20036;-79
2023/04/20 13:01:06;;;;;;;10.60;5.15;;;;;;;;;;4848797;29;20371;-80
2023/04/20 13:03:33;;;;;;;7.95;5.28;;;;;;;;;;4851967;29;20058;-82
2023/04/20 13:06:00;;;;;;;8.48;5.38;;;;;;;;;;4835061;29;20026;-80
2023/04/20 13:08:26;;;;;;;8.00;4.70;;;;;;;;;;4826924;29;20046;-78
2023/04/20 13:10:52;;;;;;;8.50;5.07;;;;;;;;;;4835301;29;20397;-79
2023/04/20 13:13:18;;;;;;;10.07;5.50;;;;;;;;;;4834192;29;20300;-76
2023/04/20 13:15:44;;;;;;;8.70;5.15;;;;;;;;;;4828872;29;20045;-75
2023/04/20 13:18:10;;;;;;;6.30;4.82;;;;;;;;;;4837875;29;20034;-75
2023/04/20 13:20:36;;;;;;;6.03;5.05;;;;;;;;;;4835276;29;20069;-74
2023/04/20 13:23:03;;;;;;;8.63;4.97;;;;;;;;;;4837669;29;20093;-76
2023/04/20 13:25:32;;;;;;;9.73;5.70;;;;;;;;;;4833173;29;20041;-74
2023/04/20 13:27:58;;;;;;;8.68;4.60;;;;;;;;;;4841769;29;20526;-74
2023/04/20 13:30:25;;;;;;;11.75;6.10;;;;;;;;;;4836585;29;20062;-74
2023/04/20 13:32:51;;;;;;;8.65;5.40;;;;;;;;;;4839007;29;20495;-74
2023/04/20 13:35:17;;;;;;;7.10;5.30;;;;;;;;;;4838205;29;20025;-74
2023/04/20 13:37:44;;;;;;;7.70;5.72;;;;;;;;;;4833292;29;20038;-74
2023/04/20 13:40:11;;;;;;;5.80;5.00;;;;;;;;;;4836815;29;20415;-75
2023/04/20 13:42:37;;;;;;;7.93;5.10;;;;;;;;;;4831107;29;20045;-75
2023/04/20 13:45:03;;;;;;;10.88;5.68;;;;;;;;;;4839526;29;20034;-75
2023/04/20 13:47:30;;;;;;;6.63;4.95;;;;;;;;;;4832397;29;20026;-78
2023/04/20 13:49:56;;;;;;;9.07;5.05;;;;;;;;;;4835894;29;20034;-79
2023/04/20 13:52:22;;;;;;;9.68;6.97;;;;;;;;;;4832650;29;20038;-76
2023/04/20 13:54:48;;;;;;;8.43;5.90;;;;;;;;;;4837813;29;20060;-79
2023/04/20 13:57:14;;;;;;;8.73;5.90;;;;;;;;;;4835832;29;20045;-79
2023/04/20 13:59:40;;;;;;;11.32;5.50;;;;;;;;;;4836304;29;20520;-77
2023/04/20 14:02:07;;;;;;;8.27;5.22;;;;;;;;;;4846877;29;20067;-77
2023/04/20 14:04:33;;;;;;;8.80;4.80;;;;;;;;;;4846854;29;20025;-77
2023/04/20 14:06:59;;;;;;;8.15;5.13;;;;;;;;;;4840568;29;20033;-78
2023/04/20 14:09:27;;;;;;;8.63;5.35;;;;;;;;;;4839682;29;20034;-77
2023/04/20 14:11:53;;;;;;;6.82;5.18;;;;;;;;;;4841945;29;20029;-77
2023/04/20 14:14:19;;;;;;;7.10;4.15;;;;;;;;;;4839067;29;20038;-77
2023/04/20 14:16:46;;;;;;;7.32;4.82;;;;;;;;;;4837487;29;20030;-77
2023/04/20 14:19:12;;;;;;;8.82;5.22;;;;;;;;;;4832896;29;20165;-74
2023/04/20 14:21:39;;;;;;;5.63;4.55;;;;;;;;;;4835447;29;20420;-74
2023/04/20 14:24:08;;;;;;;9.88;5.32;;;;;;;;;;4832144;29;20039;-73
2023/04/20 14:26:34;;;;;;;6.40;4.82;;;;;;;;;;4824931;29;20043;-73
2023/04/20 14:29:00;;;;;;;9.13;5.05;;;;;;;;;;4842559;29;20042;-72
2023/04/20 14:31:27;;;;;;;6.70;4.65;;;;;;;;;;4838215;29;20494;-73
2023/04/20 14:33:53;;;;;;;6.03;4.22;;;;;;;;;;4835791;29;20038;-73
2023/04/20 14:36:19;;;;;;;8.15;4.50;;;;;;;;;;4840937;29;20038;-73
2023/04/20 14:38:45;;;;;;;7.93;5.32;;;;;;;;;;4839287;29;20509;-73
2023/04/20 14:41:15;;;;;;;7.57;5.15;;;;;;;;;;4845674;29;20080;-73
2023/04/20 14:43:41;;;;;;;8.38;4.70;;;;;;;;;;4838172;29;20037;-72
2023/04/20 14:46:07;;;;;;;7.68;4.78;;;;;;;;;;4835059;29;20038;-73
2023/04/20 14:48:37;;;;;;;6.68;4.82;;;;;;;;;;4831913;29;20557;-75
2023/04/20 14:51:03;;;;;;;8.00;4.72;;;;;;;;;;4848816;29;20050;-75
2023/04/20 14:53:30;;;;;;;9.30;5.50;;;;;;;;;;4828472;29;20148;-74
2023/04/20 14:55:56;;;;;;;7.03;4.70;;;;;;;;;;4836053;29;20380;-74
2023/04/20 14:58:22;;;;;;;6.50;4.90;;;;;;;;;;4831277;29;20030;-75
2023/04/20 15:00:48;;;;;;;10.85;7.68;;;;;;;;;;4836975;29;20471;-75
2023/04/20 15:03:16;;;;;;;6.80;5.00;;;;;;;;;;4848097;29;20057;-77
2023/04/20 15:05:42;;;;;;;6.72;4.60;;;;;;;;;;4839340;29;20502;-76
2023/04/20 15:08:09;;;;;;;7.53;4.90;;;;;;;;;;4840103;29;20100;-74
2023/04/20 15:10:35;;;;;;;7.07;5.10;;;;;;;;;;4829428;29;20037;-72
2023/04/20 15:13:01;;;;;;;8.45;4.97;;;;;;;;;;4836555;29;20037;-75
2023/04/20 15:15:28;;;;;;;5.90;4.85;;;;;;;;;;4827501;29;20117;-73
2023/04/20 15:17:54;;;;;;;6.57;4.57;;;;;;;;;;4836878;29;20054;-73
2023/04/20 15:20:20;;;;;;;6.82;4.68;;;;;;;;;;4828878;29;20077;-72
2023/04/20 15:22:46;;;;;;;7.80;5.20;;;;;;;;;;4831498;29;20034;-72
2023/04/20 15:25:14;;;;;;;6.50;5.07;;;;;;;;;;4835950;29;20395;-76
2023/04/20 15:27:40;;;;;;;7.88;5.32;;;;;;;;;;4833807;29;21346;-75
2023/04/20 15:30:07;;;;;;;7.43;5.28;;;;;;;;;;4834431;29;20079;-75
2023/04/20 15:32:33;;;;;;;9.90;4.63;;;;;;;;;;4835541;29;20026;-76
2023/04/20 15:34:59;;;;;;;10.55;5.13;;;;;;;;;;4837235;29;20502;-76
2023/04/20 15:37:25;;;;;;;10.82;5.30;;;;;;;;;;4841997;29;20387;-77
2023/04/20 15:39:51;;;;;;;11.43;6.18;;;;;;;;;;4832380;29;20050;-75
2023/04/20 15:42:18;;;;;;;7.35;4.72;;;;;;;;;;4840009;29;20087;-76
2023/04/20 15:44:44;;;;;;;8.18;5.07;;;;;;;;;;4836319;29;20046;-79
2023/04/20 15:47:10;;;;;;;6.57;4.80;;;;;;;;;;4832169;29;20119;-77
2023/04/20 15:49:39;;;;;;;7.60;4.70;;;;;;;;;;4833111;29;20058;-76
2023/04/20 15:52:06;;;;;;;5.90;4.72;;;;;;;;;;4830696;29;20400;-75
2023/04/20 15:54:32;;;;;;;6.35;5.00;;;;;;;;;;4836400;29;20030;-76
2023/04/20 15:56:59;;;;;;;6.40;4.97;;;;;;;;;;4832378;29;20041;-76
2023/04/20 15:59:25;;;;;;;8.40;5.35;;;;;;;;;;4837283;29;20098;-77
2023/04/20 16:01:52;;;;;;;5.75;4.82;;;;;;;;;;4830030;29;20034;-77
2023/04/20 16:04:18;;;;;;;12.88;5.47;;;;;;;;;;4851919;29;20109;-76